Share

Farson, WY (82932)

Rock Springs-Sweetwater (KRKS) Elev 6759 ft | 41.59 °N, 109.05 °W | Change Station

Current weather conditions updated 51 minutes ago

Clear
Clear
36 °F
Feels Like 36 °F
N
0
Wind Variable Wind from North
Sunrise 6:33 AM
Sunset 8:01 PM
Moon Waning Gibbous

Today is forecast to be Warmer than yesterday.

Pressure 30.00 in
Visibility 10.0 miles
Clouds Clear
Dew Point 11 °F
Humidity 36%
Rainfall 0.00 in
Snow Depth Not available.
UV 0 out of 16
Pollen 9.10 out of 12
Air Quality Not available.
Flu Activity Sporadic
METAR KRKS 170554Z AUTO 00000KT 10SM CLR 02/M12 A3004 RMK AO2 SLP157 T00221117 10100 20011 51013

More Conditions Fewer Conditions

Pressure 30.00 in
Visibility 10.0 miles
Clouds Clear
Dew Point 11 °F
Humidity 36%
Rainfall 0.00 in
Snow Depth Not available.
UV 0 out of 16
Pollen 9.10 out of 12
Air Quality Not available.
Flu Activity Sporadic
METAR KRKS 170554Z AUTO 00000KT 10SM CLR 02/M12 A3004 RMK AO2 SLP157 T00221117 10100 20011 51013

More Conditions Fewer Conditions

10-Day Forecast

Almanac

Astronomy

Apr. 17, 2014 Rise Set
Actual Time 6:33 AM MDT 8:01 PM MDT
Civil Twilight 6:04 AM MDT 8:30 PM MDT
Nautical Twilight 5:29 AM MDT 9:06 PM MDT
Astronomical Twilight 4:52 AM MDT 9:43 PM MDT
Moon 10:52 PM MDT 8:06 AM MDT
Length of Visible Light 14h 25m
Length of Day
13h 27m
Tomorrow will be 2m 41s longer.
Waning Gibbous, 96% of the Moon is Illuminated
Today
Waning Gibbous
Apr 22
Last Quarter
Apr 29
New
May 6
First Quarter
May 14
Full

Today's Extremes

State Highs State Lows

Community

  • Sunset over the Bay
    Sunset over the Bay
  • symphony in blue....
    symphony in blue....
  • Dawn Surprise
    Dawn Surprise
  • Yucca delight
    Yucca delight
  • Sunset inside of the Ocean
    Sunset inside of the Ocean

WunderPhotos

Upload Photos

1,701,875 photos uploaded!

WunderBlogs® & News

Nearby

Snow Depth

Station Depth Elevation
Big Sandy Opening 47 in 9080 ft
South Pass 48 in 9040 ft
Townsend Creek 28 in 8700 ft
Snider Basin 41 in 8060 ft
Hams Fork 32 in 7840 ft

Coastal Water Temperatures

Place Temperature
No Stations Reporting

Earthquake Activity

City Distance Mag. Time & Date
No recent earthquake activity has been reported nearby.
Minimum magnitude displayed is 2.5.

Nearby Weather Stations

Station Location Temp. Windchill Dew Point Humidity Wind Precip. Elev Updated Type
Farson WY 82932, Farson, WY 36.5 °F 36 °F 14 °F 40% North  at  0.0 mph 0.00 in / hr 6644 ft 8:15 PM MST Rapid Fire
HADS BIG SANDY RIVER ABOVE BIG SANDY WY, Farson, WY 28 °F 28 °F - - North  at  - 0.00 in / hr 6778 ft 12:00 AM MDT MADIS

Show More Stations Show Fewer Stations

What do you think?

We're not finished. Please let us know what you like, what you don't like, and what you are still missing.